This is the latest recevied weather packets stored in our database for station/object F4HUO-10. If no packets are shown the sender has not sent any weather packets the latest 10 day(s).
| Time | Temp. | Humidity | Pressure | Rain* | Wind** | Luminosity | Snow |
|---|---|---|---|---|---|---|---|
| 1777738054 | 21.11° C | 51% | 1002.9 hPa | - | - | - | - |
| 1777734453 | 21.11° C | 51% | 1003.2 hPa | - | - | - | - |
| 1777727250 | 21.11° C | 55% | 1004.6 hPa | - | - | - | - |
| 1777723649 | 21.11° C | 56% | 1005.2 hPa | - | - | - | - |
| 1777720047 | 21.11° C | 56% | 1006 hPa | - | - | - | - |
| 1777716453 | 20° C | 58% | 1006.7 hPa | - | - | - | - |
| 1777712852 | 20° C | 61% | 1007.5 hPa | - | - | - | - |
| 1777709251 | 20° C | 57% | 1007.8 hPa | - | - | - | - |
| 1777705649 | 19.44° C | 57% | 1007.9 hPa | - | - | - | - |
| 1777702048 | 19.44° C | 55% | 1008 hPa | - | - | - | - |
| 1777698446 | 19.44° C | 55% | 1007.9 hPa | - | - | - | - |
| 1777694853 | 19.44° C | 54% | 1008.1 hPa | - | - | - | - |
| 1777691251 | 19.44° C | 55% | 1008.2 hPa | - | - | - | - |
| 1777687650 | 19.44° C | 55% | 1008.6 hPa | - | - | - | - |
| 1777684049 | 19.44° C | 55% | 1008.8 hPa | - | - | - | - |
| 1777680447 | 19.44° C | 55% | 1009 hPa | - | - | - | - |
| 1777676846 | 20° C | 55% | 1009.3 hPa | - | - | - | - |
| 1777673252 | 20.56° C | 56% | 1009.1 hPa | - | - | - | - |
| 1777669650 | 20.56° C | 55% | 1009.5 hPa | - | - | - | - |
| 1777666049 | 20° C | 54% | 1009.3 hPa | - | - | - | - |
| 1777662448 | 20° C | 53% | 1009.1 hPa | - | - | - | - |
| 1777658846 | 20.56° C | 51% | 1009.4 hPa | - | - | - | - |
| 1777655245 | 21.11° C | 50% | 1008.1 hPa | - | - | - | - |
| 1777651651 | 20.56° C | 48% | 1008.2 hPa | - | - | - | - |
| 1777648050 | 20° C | 48% | 1008.9 hPa | - | - | - | - |
* Rain since midnight (hover to see other rain measurements)
** Current wind speed in m/s (hover to see current wind gust speed)